< < Back
Terminal Aerodrome Forecast


Current Version              Previous Versions:   1  2  3  4  5  6  7  8  9  

Terminal Aerodrome Forecast

756
FTUS42 KGSP 221100
TAFGSP
TAF
KGSP 221121Z 2212/2312 02008KT P6SM FEW080
     FM230000 03007KT P6SM SCT250=

Latest METAR

500
SAUS70 KWBC 230200 RRN
MTRGSP
METAR KGSP 230153Z 00000KT 10SM BKN050 BKN060 19/15 A3014 RMK AO2 SLP197
T01890150


USA.gov is the U.S. government's official web portal to all federal, state and local government web resources and services.